createdAt,value
2016-07-09T00:00:09.104Z,17.95
2016-07-09T00:00:19.110Z,17.82
2016-07-09T00:00:30.061Z,17.81
2016-07-09T00:00:39.754Z,17.81
2016-07-09T00:00:49.123Z,17.79
2016-07-09T00:00:59.774Z,17.78
2016-07-09T00:01:09.137Z,17.84
2016-07-09T00:01:19.774Z,17.86
2016-07-09T00:01:29.146Z,17.84
2016-07-09T00:01:39.790Z,17.82
2016-07-09T00:01:49.156Z,17.82
2016-07-09T00:01:59.797Z,17.82
2016-07-09T00:02:09.801Z,17.86
2016-07-09T00:02:19.806Z,17.79
2016-07-09T00:02:29.813Z,17.78
2016-07-09T00:02:39.819Z,17.79
2016-07-09T00:02:49.825Z,17.77
2016-07-09T00:02:59.828Z,17.71
2016-07-09T00:03:09.834Z,17.75
2016-07-09T00:03:19.203Z,17.72
2016-07-09T00:03:29.844Z,17.74
2016-07-09T00:03:39.904Z,17.71
2016-07-09T00:03:49.221Z,17.63
2016-07-09T00:03:59.863Z,17.68
2016-07-09T00:04:09.869Z,17.59
2016-07-09T00:04:19.873Z,17.68
2016-07-09T00:04:29.881Z,17.68
2016-07-09T00:04:39.884Z,17.68
2016-07-09T00:04:49.253Z,17.63
2016-07-09T00:04:59.894Z,17.58
2016-07-09T00:05:09.267Z,17.63
2016-07-09T00:05:19.907Z,17.63
2016-07-09T00:05:29.911Z,17.66
2016-07-09T00:05:39.282Z,17.63
2016-07-09T00:05:49.288Z,17.62
2016-07-09T00:05:59.290Z,17.62
2016-07-09T00:06:09.931Z,17.59
2016-07-09T00:06:19.936Z,17.54
2016-07-09T00:06:29.940Z,17.58
2016-07-09T00:06:39.951Z,17.56
2016-07-09T00:06:49.954Z,17.58
2016-07-09T00:06:59.328Z,17.58
2016-07-09T00:07:09.966Z,17.55
2016-07-09T00:07:19.969Z,17.51
2016-07-09T00:07:30.000Z,17.54
2016-07-09T00:07:39.346Z,17.54
2016-07-09T00:07:49.987Z,17.52
2016-07-09T00:07:59.993Z,17.54
2016-07-09T00:08:09.997Z,17.48
2016-07-09T00:08:20.005Z,17.49
2016-07-09T00:08:30.008Z,17.49
2016-07-09T00:08:40.011Z,17.52
2016-07-09T00:08:50.020Z,17.58
2016-07-09T00:09:00.026Z,17.54
2016-07-09T00:09:09.399Z,17.49
2016-07-09T00:09:19.401Z,17.51
2016-07-09T00:09:29.407Z,17.46
2016-07-09T00:09:39.412Z,17.43
2016-07-09T00:09:50.055Z,17.38
2016-07-09T00:09:59.423Z,17.51
2016-07-09T00:10:09.428Z,17.49
2016-07-09T00:10:20.074Z,17.48
2016-07-09T00:10:29.437Z,17.49
2016-07-09T00:10:40.079Z,17.4
2016-07-09T00:10:49.447Z,17.4
2016-07-09T00:11:00.089Z,17.33
2016-07-09T00:11:10.093Z,17.33
2016-07-09T00:11:20.103Z,17.36
2016-07-09T00:11:30.106Z,17.41
2016-07-09T00:11:40.112Z,17.38
2016-07-09T00:11:50.117Z,17.44
2016-07-09T00:12:00.122Z,17.3
2016-07-09T00:12:10.126Z,17.37
2016-07-09T00:12:20.135Z,17.37
2016-07-09T00:12:30.145Z,17.37
2016-07-09T00:12:40.143Z,17.33
2016-07-09T00:12:50.148Z,17.36
2016-07-09T00:13:00.155Z,17.33
2016-07-09T00:13:09.524Z,17.34
2016-07-09T00:13:20.164Z,17.25
2016-07-09T00:13:30.169Z,17.31
2016-07-09T00:13:40.174Z,17.31
2016-07-09T00:13:50.183Z,17.33
2016-07-09T00:14:00.186Z,17.34
2016-07-09T00:14:10.193Z,17.33
2016-07-09T00:14:19.565Z,17.26
2016-07-09T00:14:30.203Z,17.21
2016-07-09T00:14:40.208Z,17.16
2016-07-09T00:14:50.212Z,17.25
2016-07-09T00:15:00.219Z,17.25
2016-07-09T00:15:10.222Z,17.28
2016-07-09T00:15:20.229Z,17.21
2016-07-09T00:15:30.240Z,17.26
2016-07-09T00:15:40.242Z,17.3
2016-07-09T00:15:50.247Z,17.16
2016-07-09T00:16:00.255Z,17.16
2016-07-09T00:16:10.267Z,17.22
2016-07-09T00:16:19.628Z,17.22
2016-07-09T00:16:30.267Z,17.22
2016-07-09T00:16:40.279Z,17.22
2016-07-09T00:16:50.279Z,17.19
2016-07-09T00:17:00.283Z,17.19
2016-07-09T00:17:09.656Z,17.21
2016-07-09T00:17:19.661Z,17.19
2016-07-09T00:17:30.309Z,17.16
2016-07-09T00:17:40.306Z,17.22
2016-07-09T00:17:50.310Z,17.22
2016-07-09T00:18:00.314Z,17.21
2016-07-09T00:18:10.324Z,17.19
2016-07-09T00:18:19.691Z,17.19
2016-07-09T00:18:30.331Z,17.23
2016-07-09T00:18:39.703Z,17.26
2016-07-09T00:18:50.582Z,17.22
2016-07-09T00:19:00.348Z,17.18
2016-07-09T00:19:10.355Z,17.22
2016-07-09T00:19:20.359Z,17.21
2016-07-09T00:19:30.364Z,17.21
2016-07-09T00:19:40.371Z,17.21
2016-07-09T00:19:49.741Z,17.18
2016-07-09T00:19:59.744Z,17.26
2016-07-09T00:20:10.387Z,17.23
2016-07-09T00:20:20.394Z,17.21
2016-07-09T00:20:29.762Z,17.21
2016-07-09T00:20:40.405Z,17.21
2016-07-09T00:20:49.775Z,17.16
2016-07-09T00:21:00.421Z,17.22
2016-07-09T00:21:10.419Z,17.28
2016-07-09T00:21:20.423Z,17.18
2016-07-09T00:21:30.430Z,17.21
2016-07-09T00:21:40.434Z,17.18
2016-07-09T00:21:49.805Z,17.25
2016-07-09T00:22:00.461Z,17.19
2016-07-09T00:22:10.450Z,17.22
2016-07-09T00:22:20.457Z,17.18
2016-07-09T00:22:29.827Z,17.19
2016-07-09T00:22:40.467Z,17.14
2016-07-09T00:22:50.471Z,17.15
2016-07-09T00:23:00.479Z,17.23
2016-07-09T00:23:10.483Z,17.23
2016-07-09T00:23:20.490Z,17.19
2016-07-09T00:23:30.494Z,17.23
2016-07-09T00:23:39.865Z,17.19
2016-07-09T00:23:50.505Z,17.19
2016-07-09T00:24:00.512Z,17.21
2016-07-09T00:24:09.881Z,17.16
2016-07-09T00:24:20.521Z,17.28
2016-07-09T00:24:30.530Z,17.22
2016-07-09T00:24:40.529Z,17.26
2016-07-09T00:24:50.537Z,17.22
2016-07-09T00:25:00.543Z,17.23
2016-07-09T00:25:09.913Z,17.22
2016-07-09T00:25:20.554Z,17.26
2016-07-09T00:25:30.592Z,17.15
2016-07-09T00:25:40.567Z,17.04
2016-07-09T00:25:50.570Z,17.21
2016-07-09T00:26:00.574Z,17.08
2016-07-09T00:26:10.582Z,17.22
2016-07-09T00:26:20.589Z,17.18
2016-07-09T00:26:30.589Z,17.21
2016-07-09T00:26:40.596Z,17.19
2016-07-09T00:26:50.599Z,17.15
2016-07-09T00:27:00.605Z,17.18
2016-07-09T00:27:09.977Z,17.16
2016-07-09T00:27:19.981Z,17.25
2016-07-09T00:27:30.624Z,17.19
2016-07-09T00:27:39.994Z,17.21
2016-07-09T00:27:50.631Z,17.23
2016-07-09T00:28:00.640Z,17.16
2016-07-09T00:28:10.643Z,17.19
2016-07-09T00:28:20.649Z,17.21
2016-07-09T00:28:30.655Z,17.16
2016-07-09T00:28:40.665Z,17.22
2016-07-09T00:28:50.665Z,17.19
2016-07-09T00:29:00.669Z,17.26
2016-07-09T00:29:10.041Z,17.22
2016-07-09T00:29:20.046Z,17.22
2016-07-09T00:29:30.053Z,17.16
2016-07-09T00:29:40.693Z,17.19
2016-07-09T00:29:50.702Z,17.28
2016-07-09T00:30:00.704Z,17.19
2016-07-09T00:30:10.710Z,17.19
2016-07-09T00:30:20.077Z,17.21
2016-07-09T00:30:30.718Z,17.16
2016-07-09T00:30:40.725Z,17.19
2016-07-09T00:30:50.729Z,17.19
2016-07-09T00:31:00.737Z,17.25
2016-07-09T00:31:10.740Z,17.22
2016-07-09T00:31:20.746Z,17.19
2016-07-09T00:31:30.115Z,17.22
2016-07-09T00:31:40.762Z,17.19
2016-07-09T00:31:50.766Z,17.19
2016-07-09T00:32:00.132Z,17.19
2016-07-09T00:32:10.776Z,17.06
2016-07-09T00:32:20.778Z,17.19
2016-07-09T00:32:30.149Z,17.21
2016-07-09T00:32:40.790Z,17.06
2016-07-09T00:32:50.801Z,17.22
2016-07-09T00:33:00.799Z,17.11
2016-07-09T00:33:10.169Z,17.23
2016-07-09T00:33:20.177Z,17.23
2016-07-09T00:33:30.178Z,17.19
2016-07-09T00:33:40.185Z,17.19
2016-07-09T00:33:50.192Z,17.21
2016-07-09T00:34:00.833Z,17.15
2016-07-09T00:34:10.837Z,17.11
2016-07-09T00:34:20.842Z,17.23
2016-07-09T00:34:30.211Z,17.04
2016-07-09T00:34:40.216Z,17.03
2016-07-09T00:34:50.231Z,17.21
2016-07-09T00:35:00.866Z,17.11
2016-07-09T00:35:10.870Z,17.12
2016-07-09T00:35:20.871Z,17.18
2016-07-09T00:35:30.883Z,17.08
2016-07-09T00:35:40.887Z,17.16
2016-07-09T00:35:50.891Z,17.15
2016-07-09T00:36:00.260Z,17.08
2016-07-09T00:36:10.265Z,17.01
2016-07-09T00:36:20.908Z,17.12
2016-07-09T00:36:30.914Z,17.18
2016-07-09T00:36:40.918Z,17.15
2016-07-09T00:36:50.922Z,17.14
2016-07-09T00:37:00.294Z,17.21
2016-07-09T00:37:10.933Z,17.06
2016-07-09T00:37:20.940Z,17.08
2016-07-09T00:37:30.945Z,17.14
2016-07-09T00:37:40.313Z,17.11
2016-07-09T00:37:50.954Z,17.06
2016-07-09T00:38:00.961Z,17.08
2016-07-09T00:38:10.965Z,17.07
2016-07-09T00:38:20.341Z,17.04
2016-07-09T00:38:30.978Z,17.11
2016-07-09T00:38:40.983Z,17.08
2016-07-09T00:38:50.988Z,17.07
2016-07-09T00:39:00.992Z,17.11
2016-07-09T00:39:10.999Z,17.03
2016-07-09T00:39:21.002Z,17.07
2016-07-09T00:39:31.008Z,17.07
2016-07-09T00:39:40.379Z,17.03
2016-07-09T00:39:50.385Z,17.06
2016-07-09T00:40:01.024Z,16.98
2016-07-09T00:40:11.028Z,17.04
2016-07-09T00:40:21.035Z,16.98
2016-07-09T00:40:31.041Z,17.07
2016-07-09T00:40:41.047Z,17.03
2016-07-09T00:40:51.053Z,17.01
2016-07-09T00:41:00.423Z,17.04
2016-07-09T00:41:11.061Z,17
2016-07-09T00:41:21.065Z,16.98
2016-07-09T00:41:30.453Z,17.04
2016-07-09T00:41:41.080Z,17.04
2016-07-09T00:41:51.087Z,17.04
2016-07-09T00:42:00.456Z,17.01
2016-07-09T00:42:11.095Z,17.04
2016-07-09T00:42:21.102Z,17.03
2016-07-09T00:42:31.112Z,17.03
2016-07-09T00:42:41.110Z,17.03
2016-07-09T00:42:51.117Z,17.07
2016-07-09T00:43:01.122Z,17
2016-07-09T00:43:10.491Z,17
2016-07-09T00:43:21.133Z,17.04
2016-07-09T00:43:31.137Z,17.03
2016-07-09T00:43:41.146Z,16.97
2016-07-09T00:43:50.511Z,17.01
2016-07-09T00:44:01.154Z,16.98
2016-07-09T00:44:11.159Z,17.04
2016-07-09T00:44:21.164Z,16.96
2016-07-09T00:44:31.173Z,17.03
2016-07-09T00:44:41.175Z,17
2016-07-09T00:44:51.182Z,17.01
2016-07-09T00:45:01.185Z,17.03
2016-07-09T00:45:10.556Z,16.97
2016-07-09T00:45:21.197Z,17.01
2016-07-09T00:45:31.202Z,17.01
2016-07-09T00:45:41.207Z,17.04
2016-07-09T00:45:51.216Z,17.01
2016-07-09T00:46:01.218Z,17.04
2016-07-09T00:46:11.223Z,17.04
2016-07-09T00:46:21.229Z,17.01
2016-07-09T00:46:30.602Z,17.01
2016-07-09T00:46:41.242Z,16.98
2016-07-09T00:46:50.608Z,17.01
2016-07-09T00:47:01.250Z,17
2016-07-09T00:47:11.255Z,17.03
2016-07-09T00:47:20.623Z,17.03
2016-07-09T00:47:31.265Z,16.98
2016-07-09T00:47:41.274Z,17.06
2016-07-09T00:47:50.641Z,17.01
2016-07-09T00:48:01.281Z,17.04
2016-07-09T00:48:11.287Z,17.01
2016-07-09T00:48:21.293Z,16.98
2016-07-09T00:48:31.297Z,17.01
2016-07-09T00:48:41.303Z,17.03
2016-07-09T00:48:50.681Z,17.06
2016-07-09T00:49:01.317Z,17.04
2016-07-09T00:49:11.320Z,17.03
2016-07-09T00:49:21.328Z,17
2016-07-09T00:49:30.696Z,17.04
2016-07-09T00:49:41.336Z,17.01
2016-07-09T00:49:51.342Z,17.03
2016-07-09T00:50:01.349Z,17.01
2016-07-09T00:50:11.351Z,17.03
2016-07-09T00:50:21.357Z,17
2016-07-09T00:50:31.360Z,16.97
2016-07-09T00:50:41.385Z,16.98
2016-07-09T00:50:50.739Z,17.01
2016-07-09T00:51:00.744Z,17.01
2016-07-09T00:51:11.387Z,17.03
2016-07-09T00:51:21.390Z,16.98
2016-07-09T00:51:30.759Z,17.04
2016-07-09T00:51:40.768Z,17.06
2016-07-09T00:51:51.406Z,17.01
2016-07-09T00:52:01.411Z,17.01
2016-07-09T00:52:10.781Z,17.03
2016-07-09T00:52:21.418Z,17.04
2016-07-09T00:52:31.435Z,17.01
2016-07-09T00:52:41.434Z,17
2016-07-09T00:52:51.438Z,17.03
2016-07-09T00:53:01.444Z,17.06
2016-07-09T00:53:11.447Z,17.03
2016-07-09T00:53:20.819Z,17.06
2016-07-09T00:53:31.458Z,16.98
2016-07-09T00:53:40.830Z,17.08
2016-07-09T00:53:51.470Z,17.07
2016-07-09T00:54:01.476Z,17.04
2016-07-09T00:54:11.486Z,17.07
2016-07-09T00:54:21.486Z,17.01
2016-07-09T00:54:31.492Z,17.07
2016-07-09T00:54:41.497Z,17.04
2016-07-09T00:54:50.868Z,17.06
2016-07-09T00:55:01.509Z,17.11
2016-07-09T00:55:11.510Z,17.14
2016-07-09T00:55:21.518Z,17.06
2016-07-09T00:55:31.524Z,17.07
2016-07-09T00:55:41.530Z,17.07
2016-07-09T00:55:50.898Z,17.08
2016-07-09T00:56:01.543Z,17.07
2016-07-09T00:56:11.543Z,17.11
2016-07-09T00:56:21.551Z,17.08
2016-07-09T00:56:30.919Z,17.06
2016-07-09T00:56:40.925Z,17.07
2016-07-09T00:56:51.569Z,17.08
2016-07-09T00:57:01.577Z,17.11
2016-07-09T00:57:11.607Z,17.06
2016-07-09T00:57:21.583Z,17.14
2016-07-09T00:57:31.587Z,17.11
2016-07-09T00:57:41.594Z,17.07
2016-07-09T00:57:50.963Z,17.12
2016-07-09T00:58:01.601Z,17.12
2016-07-09T00:58:11.610Z,17.07
2016-07-09T00:58:20.981Z,17.06
2016-07-09T00:58:31.621Z,17.07
2016-07-09T00:58:40.990Z,17.06
2016-07-09T00:58:50.994Z,17.06
2016-07-09T00:59:01.014Z,17.08
2016-07-09T00:59:11.642Z,17.06
2016-07-09T00:59:21.646Z,17.11
2016-07-09T00:59:31.652Z,17.03
2016-07-09T00:59:41.020Z,17.08
2016-07-09T00:59:51.662Z,17.07
2016-07-09T01:00:01.032Z,17.06
2016-07-09T01:00:11.672Z,17.11
2016-07-09T01:00:21.678Z,17.11
2016-07-09T01:00:31.684Z,17.12
2016-07-09T01:00:41.688Z,17.12
2016-07-09T01:01:04.126Z,17.08
2016-07-09T01:01:14.097Z,17.11
2016-07-09T01:01:37.871Z,17.08
2016-07-09T01:02:44.723Z,17.11
2016-07-09T01:02:54.193Z,17.14
2016-07-09T01:03:13.327Z,17.06
2016-07-09T01:03:23.386Z,17.14
2016-07-09T01:03:43.358Z,17.23
2016-07-09T01:04:07.121Z,17.16
2016-07-09T01:04:10.694Z,17.19
2016-07-09T01:04:21.842Z,17.11
2016-07-09T01:04:31.658Z,17.12
2016-07-09T01:04:41.634Z,17.08
2016-07-09T01:05:07.082Z,17.22
2016-07-09T01:05:40.308Z,17.11
2016-07-09T01:05:50.494Z,17.11
2016-07-09T01:06:00.244Z,17.11
2016-07-09T01:06:10.246Z,17.08
2016-07-09T01:06:20.494Z,17.07
2016-07-09T01:06:30.032Z,17.08
2016-07-09T01:06:40.506Z,17.12
2016-07-09T01:06:50.527Z,17.21
2016-07-09T01:07:00.540Z,17.08
2016-07-09T01:07:24.227Z,17.11
2016-07-09T01:07:27.750Z,17.15
2016-07-09T01:07:37.742Z,17.08
2016-07-09T01:07:47.748Z,17.11
2016-07-09T01:07:57.752Z,17.07
2016-07-09T01:08:07.122Z,17.03
2016-07-09T01:08:17.762Z,17.04
2016-07-09T01:08:27.770Z,17.01
2016-07-09T01:08:37.772Z,17.06
2016-07-09T01:08:47.777Z,17.06
2016-07-09T01:08:57.782Z,17.01
2016-07-09T01:09:07.788Z,16.98
2016-07-09T01:09:17.794Z,17
2016-07-09T01:09:27.798Z,17.06
2016-07-09T01:09:37.804Z,17.01
2016-07-09T01:09:47.174Z,17
2016-07-09T01:09:57.818Z,17.03
2016-07-09T01:10:07.822Z,17.01
2016-07-09T01:10:17.830Z,17.01
2016-07-09T01:10:27.831Z,17
2016-07-09T01:10:37.838Z,17
2016-07-09T01:10:48.159Z,16.97
2016-07-09T01:10:57.848Z,17.04
2016-07-09T01:11:07.215Z,16.98
2016-07-09T01:11:17.861Z,17.01
2016-07-09T01:11:27.863Z,16.93
2016-07-09T01:11:37.867Z,16.98
2016-07-09T01:11:47.873Z,16.96
2016-07-09T01:11:57.246Z,17.01
2016-07-09T01:12:07.885Z,17.04
2016-07-09T01:12:17.889Z,16.94
2016-07-09T01:12:27.899Z,16.96
2016-07-09T01:12:37.265Z,16.93
2016-07-09T01:12:47.272Z,16.94
2016-07-09T01:12:57.911Z,16.98
2016-07-09T01:13:07.282Z,16.96
2016-07-09T01:13:17.287Z,16.98
2016-07-09T01:13:27.927Z,16.96
2016-07-09T01:13:37.934Z,16.94
2016-07-09T01:13:47.938Z,16.98
2016-07-09T01:13:57.943Z,16.93
2016-07-09T01:14:07.315Z,16.91
2016-07-09T01:14:17.955Z,17
2016-07-09T01:14:27.960Z,16.97
2016-07-09T01:14:37.965Z,16.96
2016-07-09T01:14:47.973Z,16.98
2016-07-09T01:14:57.975Z,16.98
2016-07-09T01:15:07.346Z,16.96
2016-07-09T01:15:17.988Z,16.98
2016-07-09T01:15:27.359Z,16.97
2016-07-09T01:15:37.998Z,16.98
2016-07-09T01:15:48.004Z,16.94
2016-07-09T01:15:58.008Z,17
2016-07-09T01:16:07.376Z,17.01
2016-07-09T01:16:18.019Z,16.97
2016-07-09T01:16:28.022Z,17
2016-07-09T01:16:38.030Z,16.98
2016-07-09T01:16:48.035Z,17.01
2016-07-09T01:16:58.044Z,17.04
2016-07-09T01:17:07.411Z,17.01
2016-07-09T01:17:18.050Z,17.07
2016-07-09T01:17:28.055Z,17.03
2016-07-09T01:17:38.064Z,17
2016-07-09T01:17:48.066Z,17.01
2016-07-09T01:17:58.072Z,16.98
2016-07-09T01:18:08.079Z,17
2016-07-09T01:18:18.082Z,17.01
2016-07-09T01:18:27.452Z,17.01
2016-07-09T01:18:38.095Z,17.03
2016-07-09T01:18:48.098Z,17.01
2016-07-09T01:18:58.110Z,17.04
2016-07-09T01:19:08.110Z,17.04
2016-07-09T01:19:18.114Z,17.06
2016-07-09T01:19:28.121Z,17.06
2016-07-09T01:19:38.126Z,17.07
2016-07-09T01:19:48.130Z,17.04
2016-07-09T01:19:57.503Z,17.14
2016-07-09T01:20:08.146Z,17.08
2016-07-09T01:20:17.514Z,17.08
2016-07-09T01:20:28.155Z,17.06
2016-07-09T01:20:38.158Z,17.07
2016-07-09T01:20:48.165Z,17.07
2016-07-09T01:20:57.532Z,17.07
2016-07-09T01:21:08.174Z,17.06
2016-07-09T01:21:18.181Z,17.08
2016-07-09T01:21:27.547Z,17.08
2016-07-09T01:21:38.189Z,17.06
2016-07-09T01:21:48.194Z,17.11
2016-07-09T01:21:58.200Z,17.11
2016-07-09T01:22:08.205Z,17.03
2016-07-09T01:22:18.210Z,17.14
2016-07-09T01:22:27.583Z,17.12
2016-07-09T01:22:38.222Z,17.08
2016-07-09T01:22:48.226Z,17.08
2016-07-09T01:22:58.234Z,17.14
2016-07-09T01:23:08.236Z,17.11
2016-07-09T01:23:18.241Z,17.11
2016-07-09T01:23:28.251Z,17.08
2016-07-09T01:23:38.253Z,17.07
2016-07-09T01:23:47.625Z,17.14
2016-07-09T01:23:58.267Z,17.18
2016-07-09T01:24:08.268Z,17.11
2016-07-09T01:24:18.279Z,17.14
2016-07-09T01:24:28.280Z,17.08
2016-07-09T01:24:37.649Z,17.18
2016-07-09T01:24:48.293Z,17.15
2016-07-09T01:24:58.295Z,17.19
2016-07-09T01:25:07.673Z,17.08
2016-07-09T01:25:18.308Z,17.12
2016-07-09T01:25:28.315Z,17.22
2016-07-09T01:25:38.319Z,17.14
2016-07-09T01:25:48.323Z,17.18
2016-07-09T01:25:57.693Z,17.16
2016-07-09T01:26:08.335Z,17.18
2016-07-09T01:26:17.704Z,17.16
2016-07-09T01:26:27.709Z,17.04
2016-07-09T01:26:38.350Z,17.14
2016-07-09T01:26:48.354Z,17.18
2016-07-09T01:26:57.730Z,17.08
2016-07-09T01:27:08.366Z,17.08
2016-07-09T01:27:18.371Z,17.21
2016-07-09T01:27:28.377Z,17.19
2016-07-09T01:27:38.381Z,17.14
2016-07-09T01:27:48.388Z,17.19
2016-07-09T01:27:58.393Z,17.25
2016-07-09T01:28:08.398Z,17.19
2016-07-09T01:28:18.403Z,17.19
2016-07-09T01:28:27.771Z,17.18
2016-07-09T01:28:37.780Z,17.16
2016-07-09T01:28:47.786Z,17.23
2016-07-09T01:28:58.425Z,17.18
2016-07-09T01:29:08.428Z,17.15
2016-07-09T01:29:17.802Z,17.18
2016-07-09T01:29:28.439Z,17.19
2016-07-09T01:29:38.448Z,17.23
2016-07-09T01:29:48.450Z,17.06
2016-07-09T01:29:57.820Z,17.22
2016-07-09T01:30:08.464Z,17.26
2016-07-09T01:30:17.836Z,17.21
2016-07-09T01:30:28.475Z,17.18
2016-07-09T01:30:38.478Z,17.16
2016-07-09T01:30:48.481Z,17.23
2016-07-09T01:30:58.494Z,17.22
2016-07-09T01:31:08.496Z,17.21
2016-07-09T01:31:17.863Z,17.18
2016-07-09T01:31:27.874Z,17.25
2016-07-09T01:31:38.507Z,17.14
2016-07-09T01:31:47.880Z,17.21
2016-07-09T01:31:58.519Z,17.21
2016-07-09T01:32:08.525Z,17.15
2016-07-09T01:32:18.533Z,17.19
2016-07-09T01:32:28.535Z,17.18
2016-07-09T01:32:38.541Z,17.19
2016-07-09T01:32:47.912Z,17.28
2016-07-09T01:32:58.552Z,17.19
2016-07-09T01:33:08.557Z,17.06
2016-07-09T01:33:18.560Z,17.28
2016-07-09T01:33:27.934Z,17.16
2016-07-09T01:33:38.574Z,17.19
2016-07-09T01:33:48.577Z,17.18
2016-07-09T01:33:58.584Z,17.23
2016-07-09T01:34:07.956Z,17.01
2016-07-09T01:34:18.597Z,17.04
2016-07-09T01:34:27.967Z,17.18
2016-07-09T01:34:38.611Z,17.21
2016-07-09T01:34:48.609Z,17.23
2016-07-09T01:34:57.980Z,17.22
2016-07-09T01:35:08.621Z,17.18
2016-07-09T01:35:17.992Z,17.22
2016-07-09T01:35:28.632Z,17.22
2016-07-09T01:35:38.638Z,17.14
2016-07-09T01:35:48.642Z,17.12
2016-07-09T01:35:58.648Z,17.22
2016-07-09T01:36:08.654Z,17.21
2016-07-09T01:36:18.661Z,17
2016-07-09T01:36:28.667Z,17.14
2016-07-09T01:36:38.668Z,17.11
2016-07-09T01:36:48.040Z,17.12
2016-07-09T01:36:58.045Z,17.08
2016-07-09T01:37:08.051Z,17.18
2016-07-09T01:37:18.057Z,17.12
2016-07-09T01:37:28.697Z,17.12
2016-07-09T01:37:38.069Z,17.12
2016-07-09T01:37:48.708Z,17.04
2016-07-09T01:37:59.039Z,17.06
2016-07-09T01:38:08.719Z,17.04
2016-07-09T01:38:18.723Z,17
2016-07-09T01:38:28.094Z,17.04
2016-07-09T01:38:38.732Z,17.01
2016-07-09T01:38:48.103Z,17.01
2016-07-09T01:38:58.747Z,17
2016-07-09T01:39:08.747Z,17.03
2016-07-09T01:39:18.755Z,17.01
2016-07-09T01:39:28.759Z,16.98
2016-07-09T01:39:38.765Z,16.97
2016-07-09T01:39:48.771Z,16.93
2016-07-09T01:39:58.776Z,16.93
2016-07-09T01:40:08.784Z,17.01
2016-07-09T01:40:18.786Z,16.89
2016-07-09T01:40:28.792Z,16.96
2016-07-09T01:40:38.798Z,16.88
2016-07-09T01:40:48.175Z,16.91
2016-07-09T01:40:58.810Z,16.91
2016-07-09T01:41:08.812Z,16.91
2016-07-09T01:41:18.829Z,16.93
2016-07-09T01:41:28.824Z,16.91
2016-07-09T01:41:38.829Z,16.91
2016-07-09T01:41:48.203Z,16.94
2016-07-09T01:41:58.839Z,16.93
2016-07-09T01:42:08.853Z,16.89
2016-07-09T01:42:18.849Z,16.78
2016-07-09T01:42:28.857Z,16.86
2016-07-09T01:42:38.861Z,16.94
2016-07-09T01:42:48.868Z,16.91
2016-07-09T01:42:58.874Z,16.79
2016-07-09T01:43:08.241Z,16.89
2016-07-09T01:43:18.884Z,16.79
2016-07-09T01:43:28.889Z,16.78
2016-07-09T01:43:38.259Z,16.76
2016-07-09T01:43:48.901Z,16.78
2016-07-09T01:43:58.904Z,16.78
2016-07-09T01:44:08.917Z,16.81
2016-07-09T01:44:18.914Z,16.83
2016-07-09T01:44:28.918Z,16.85
2016-07-09T01:44:38.925Z,16.83
2016-07-09T01:44:48.936Z,16.85
2016-07-09T01:44:58.947Z,16.79
2016-07-09T01:45:08.942Z,16.79
2016-07-09T01:45:18.945Z,16.82
2016-07-09T01:45:28.319Z,16.85
2016-07-09T01:45:38.958Z,16.81
2016-07-09T01:45:48.328Z,16.79
2016-07-09T01:45:58.969Z,16.78
2016-07-09T01:46:08.972Z,16.64
2016-07-09T01:46:18.343Z,16.71
2016-07-09T01:46:28.985Z,16.76
2016-07-09T01:46:38.356Z,16.79
2016-07-09T01:46:48.993Z,16.67
2016-07-09T01:46:59.004Z,16.73
2016-07-09T01:47:09.004Z,16.67
2016-07-09T01:47:19.012Z,16.66
2016-07-09T01:47:29.015Z,16.67
2016-07-09T01:47:39.023Z,16.67
2016-07-09T01:47:49.025Z,16.67
2016-07-09T01:47:59.032Z,16.68
2016-07-09T01:48:09.034Z,16.58
2016-07-09T01:48:19.043Z,16.73
2016-07-09T01:48:29.047Z,16.66
2016-07-09T01:48:39.054Z,16.7
2016-07-09T01:48:49.057Z,16.71
2016-07-09T01:48:59.063Z,16.66
2016-07-09T01:49:09.070Z,16.63
2016-07-09T01:49:18.441Z,16.67
2016-07-09T01:49:29.077Z,16.71
2016-07-09T01:49:39.088Z,16.71
2016-07-09T01:49:49.090Z,16.67
2016-07-09T01:49:58.459Z,16.68
2016-07-09T01:50:09.104Z,16.61
2016-07-09T01:50:19.105Z,16.64
2016-07-09T01:50:28.477Z,16.63
2016-07-09T01:50:39.114Z,16.66
2016-07-09T01:50:49.121Z,16.64
2016-07-09T01:50:59.128Z,16.64
2016-07-09T01:51:09.134Z,16.56
2016-07-09T01:51:19.138Z,16.67
2016-07-09T01:51:28.507Z,16.52
2016-07-09T01:51:39.150Z,16.66
2016-07-09T01:51:49.154Z,16.58
2016-07-09T01:51:59.162Z,16.6
2016-07-09T01:52:09.162Z,16.64
2016-07-09T01:52:18.534Z,16.58
2016-07-09T01:52:29.175Z,16.61
2016-07-09T01:52:39.181Z,16.52
2016-07-09T01:52:48.551Z,16.63
2016-07-09T01:52:59.192Z,16.61
2016-07-09T01:53:08.561Z,16.56
2016-07-09T01:53:18.568Z,16.57
2016-07-09T01:53:28.573Z,16.57
2016-07-09T01:53:38.577Z,16.56
2016-07-09T01:53:48.583Z,16.57
2016-07-09T01:53:59.224Z,16.57
2016-07-09T01:54:09.230Z,16.57
2016-07-09T01:54:18.603Z,16.57
2016-07-09T01:54:29.239Z,16.56
2016-07-09T01:54:38.610Z,16.57
2016-07-09T01:54:48.618Z,16.52
2016-07-09T01:54:58.618Z,16.53
2016-07-09T01:55:09.259Z,16.56
2016-07-09T01:55:19.265Z,16.6
2016-07-09T01:55:29.274Z,16.53
2016-07-09T01:55:39.275Z,16.56
2016-07-09T01:55:49.284Z,16.5
2016-07-09T01:55:59.289Z,16.56
2016-07-09T01:56:08.657Z,16.53
2016-07-09T01:56:19.301Z,16.58
2016-07-09T01:56:29.301Z,16.57
2016-07-09T01:56:38.673Z,16.56
2016-07-09T01:56:49.314Z,16.57
2016-07-09T01:56:58.682Z,16.52
2016-07-09T01:57:09.324Z,16.61
2016-07-09T01:57:19.329Z,16.49
2016-07-09T01:57:29.335Z,16.58
2016-07-09T01:57:39.339Z,16.52
2016-07-09T01:57:49.349Z,16.58
2016-07-09T01:57:58.717Z,16.57
2016-07-09T01:58:08.720Z,16.53
2016-07-09T01:58:19.359Z,16.56
2016-07-09T01:58:29.368Z,16.53
2016-07-09T01:58:38.739Z,16.52
2016-07-09T01:58:49.376Z,16.52
2016-07-09T01:58:58.746Z,16.6
2016-07-09T01:59:08.752Z,16.57
2016-07-09T01:59:19.392Z,16.53
2016-07-09T01:59:29.398Z,16.52
2016-07-09T01:59:38.767Z,16.58
2016-07-09T01:59:49.411Z,16.56
2016-07-09T01:59:58.778Z,16.49
2016-07-09T02:00:08.785Z,16.61
2016-07-09T02:00:19.427Z,16.57
2016-07-09T02:00:29.429Z,16.61
2016-07-09T02:00:39.435Z,16.58
2016-07-09T02:00:49.440Z,16.56
2016-07-09T02:00:59.444Z,16.53
2016-07-09T02:01:09.453Z,16.56
2016-07-09T02:01:19.456Z,16.53
2016-07-09T02:01:29.463Z,16.52
2016-07-09T02:01:39.469Z,16.57
2016-07-09T02:01:48.836Z,16.56
2016-07-09T02:01:59.477Z,16.52
2016-07-09T02:02:09.487Z,16.56
2016-07-09T02:02:19.486Z,16.58
2016-07-09T02:02:29.499Z,16.6
2016-07-09T02:02:39.506Z,16.63
2016-07-09T02:02:48.869Z,16.58
2016-07-09T02:02:59.510Z,16.52
2016-07-09T02:03:09.515Z,16.53
2016-07-09T02:03:18.885Z,16.56
2016-07-09T02:03:29.527Z,16.6
2016-07-09T02:03:39.530Z,16.58
2016-07-09T02:03:49.534Z,16.6
2016-07-09T02:03:58.904Z,16.53
2016-07-09T02:04:09.545Z,16.53
2016-07-09T02:04:19.556Z,16.61
2016-07-09T02:04:29.555Z,16.57
2016-07-09T02:04:39.565Z,16.53
2016-07-09T02:04:48.929Z,16.52
2016-07-09T02:04:59.571Z,16.6
2016-07-09T02:05:08.942Z,16.57
2016-07-09T02:05:19.582Z,16.57
2016-07-09T02:05:29.587Z,16.57
2016-07-09T02:05:39.592Z,16.52
2016-07-09T02:05:49.598Z,16.57
2016-07-09T02:05:59.605Z,16.57
2016-07-09T02:06:09.609Z,16.57
2016-07-09T02:06:19.615Z,16.53
2016-07-09T02:06:29.620Z,16.56
2016-07-09T02:06:39.624Z,16.57
2016-07-09T02:06:49.629Z,16.57
2016-07-09T02:06:58.999Z,16.5
2016-07-09T02:07:09.640Z,16.52
2016-07-09T02:07:19.014Z,16.48
2016-07-09T02:07:29.652Z,16.48
2016-07-09T02:07:39.658Z,16.52
2016-07-09T02:07:49.662Z,16.45
2016-07-09T02:07:59.670Z,16.48
2016-07-09T02:08:09.037Z,16.48
2016-07-09T02:08:19.326Z,16.52
2016-07-09T02:08:29.048Z,16.38
2016-07-09T02:08:39.690Z,16.46
2016-07-09T02:08:49.694Z,16.42
2016-07-09T02:08:59.703Z,16.42
2016-07-09T02:09:09.704Z,16.45
2016-07-09T02:09:19.710Z,16.39
2016-07-09T02:09:29.086Z,16.48
2016-07-09T02:09:39.719Z,16.48
2016-07-09T02:09:49.727Z,16.49
2016-07-09T02:09:59.731Z,16.43
2016-07-09T02:10:09.102Z,16.41
2016-07-09T02:10:19.741Z,16.48
2016-07-09T02:10:29.745Z,16.45
2016-07-09T02:10:39.118Z,16.42
2016-07-09T02:10:49.757Z,16.43
2016-07-09T02:10:59.762Z,16.43
2016-07-09T02:11:09.771Z,16.45
2016-07-09T02:11:19.773Z,16.38
2016-07-09T02:11:29.142Z,16.41
2016-07-09T02:11:39.786Z,16.45
2016-07-09T02:11:49.791Z,16.39
2016-07-09T02:11:59.794Z,16.41